Time;durP1;ratioP1;P1;durP2;ratioP2;P2;SDS_P1;SDS_P2;PMS_P1;PMS_P2;Temp;Humidity;BMP_temperature;BMP_pressure;BME280_temperature;BME280_humidity;BME280_pressure;Samples;Min_cycle;Max_cycle;Signal;HPM_P1;HPM_P2
2022/01/05 00:01:08;;;;;;;2.67;2.10;;;;;;;19.30;34.94;98382.72;2053857;28;20561;-70
2022/01/05 00:02:11;;;;;;;32.33;2.90;;;;;;;19.27;35.16;98383.53;2054528;28;20042;-70
2022/01/05 00:03:16;;;;;;;2.42;1.63;;;;;;;19.30;35.09;98382.72;2054475;28;20066;-70
2022/01/05 00:04:20;;;;;;;3.38;2.58;;;;;;;19.28;35.14;98385.06;2054632;28;20050;-70
2022/01/05 00:05:25;;;;;;;2.90;2.00;;;;;;;19.31;35.45;98384.25;2054958;28;20066;-70
2022/01/05 00:06:30;;;;;;;5.28;2.67;;;;;;;19.32;35.38;98374.88;2053501;28;20050;-70
2022/01/05 00:07:35;;;;;;;2.97;1.95;;;;;;;19.33;35.37;98381.91;2053727;28;20055;-71
2022/01/05 00:08:40;;;;;;;3.42;2.30;;;;;;;19.33;35.32;98386.59;2054997;28;20106;-69
2022/01/05 00:09:46;;;;;;;2.75;1.80;;;;;;;19.36;35.43;98386.56;2054703;28;20058;-71
2022/01/05 00:10:52;;;;;;;2.85;1.90;;;;;;;19.38;35.44;98389.66;2056962;28;20054;-70
2022/01/05 00:11:58;;;;;;;4.13;1.88;;;;;;;19.37;35.19;98396.31;2062364;28;20054;-70
2022/01/05 00:13:04;;;;;;;2.90;1.65;;;;;;;19.35;35.21;98379.53;2062690;28;20054;-68
2022/01/05 00:14:09;;;;;;;3.05;1.70;;;;;;;19.40;35.34;98383.78;2062397;28;20054;-67
2022/01/05 00:15:14;;;;;;;1.80;1.40;;;;;;;19.41;35.28;98391.59;2062569;28;20050;-68
2022/01/05 00:16:21;;;;;;;2.88;1.60;;;;;;;19.38;35.55;98392.41;2062944;28;20407;-70
2022/01/05 00:17:27;;;;;;;2.05;1.42;;;;;;;19.42;39.65;98401.34;2062982;28;20050;-70
2022/01/05 00:18:31;;;;;;;2.95;1.45;;;;;;;19.44;36.12;98400.91;2063303;28;20065;-71
2022/01/05 00:19:36;;;;;;;2.35;1.50;;;;;;;19.45;35.53;98388.81;2062519;28;20540;-71
2022/01/05 00:20:40;;;;;;;3.83;1.50;;;;;;;19.49;35.56;98399.69;2062643;28;20459;-71
2022/01/05 00:21:45;;;;;;;2.85;1.63;;;;;;;19.47;35.06;98397.34;2062720;28;20050;-71
2022/01/05 00:22:49;;;;;;;2.67;1.55;;;;;;;19.46;35.31;98395.03;2063105;28;20042;-71
2022/01/05 00:23:55;;;;;;;3.47;1.90;;;;;;;19.44;35.21;98393.47;2062748;28;20045;-71
2022/01/05 00:25:03;;;;;;;3.92;1.77;;;;;;;19.44;35.26;98392.69;2062918;28;20050;-70
2022/01/05 00:26:07;;;;;;;2.33;1.45;;;;;;;19.44;35.21;98398.19;2062633;28;20494;-70
2022/01/05 00:27:12;;;;;;;2.47;1.42;;;;;;;19.43;35.05;98394.66;2062381;28;20053;-69
2022/01/05 00:28:21;;;;;;;3.30;1.80;;;;;;;19.41;34.96;98397.06;2061495;28;20703;-70
2022/01/05 00:29:24;;;;;;;3.70;1.70;;;;;;;19.40;35.21;98397.47;2061700;28;20066;-70
2022/01/05 00:30:31;;;;;;;2.75;1.55;;;;;;;19.37;34.91;98404.53;2062801;28;20042;-70
2022/01/05 00:31:44;;;;;;;2.22;1.13;;;;;;;19.39;35.25;98393.94;2062142;28;20742;-70
2022/01/05 00:32:48;;;;;;;3.05;1.80;;;;;;;19.34;35.02;98388.16;2062351;28;20054;-70
2022/01/05 00:33:55;;;;;;;2.75;1.98;;;;;;;19.31;35.03;98394.44;2061834;28;20050;-70
2022/01/05 00:35:03;;;;;;;3.65;1.60;;;;;;;19.28;35.12;98390.56;2061979;28;20074;-70
2022/01/05 00:36:07;;;;;;;3.22;1.88;;;;;;;19.28;35.42;98395.25;2062609;28;20066;-68
2022/01/05 00:37:15;;;;;;;2.05;1.70;;;;;;;19.27;35.27;98399.97;2062631;28;20410;-69
2022/01/05 00:38:19;;;;;;;4.03;2.10;;;;;;;19.27;35.38;98393.72;2061754;28;20050;-69
2022/01/05 00:39:23;;;;;;;4.03;2.40;;;;;;;19.28;35.16;98398.00;2053504;28;20047;-68
2022/01/05 00:40:27;;;;;;;3.80;1.90;;;;;;;19.27;35.16;98399.19;2061383;28;20054;-69
2022/01/05 00:41:35;;;;;;;3.22;1.67;;;;;;;19.26;35.29;98403.91;2062780;28;20057;-71
2022/01/05 00:42:40;;;;;;;2.90;1.70;;;;;;;19.26;35.23;98403.91;2062179;28;20057;-70
2022/01/05 00:43:46;;;;;;;2.75;1.60;;;;;;;19.25;35.20;98404.28;2061992;28;20054;-68
2022/01/05 00:44:50;;;;;;;5.40;3.42;;;;;;;19.23;35.27;98401.19;2062434;28;20057;-69
2022/01/05 00:45:56;;;;;;;3.67;2.05;;;;;;;19.24;35.02;98405.47;2060033;28;20057;-69
2022/01/05 00:47:05;;;;;;;3.65;1.60;;;;;;;19.26;35.21;98403.09;2062218;28;20058;-68
2022/01/05 00:48:09;;;;;;;10.63;2.17;;;;;;;19.22;35.28;98400.41;2062455;28;20050;-65
2022/01/05 00:49:15;;;;;;;4.25;1.90;;;;;;;19.20;35.16;98400.06;2062363;28;20057;-68
2022/01/05 00:50:18;;;;;;;4.95;1.90;;;;;;;19.15;35.38;98405.94;2062892;28;20052;-67
2022/01/05 00:51:22;;;;;;;3.28;1.50;;;;;;;19.18;35.23;98405.91;2062368;28;20073;-67
2022/01/05 00:52:26;;;;;;;2.78;1.58;;;;;;;19.18;35.37;98405.91;2062317;28;20510;-70
2022/01/05 00:53:34;;;;;;;5.05;1.88;;;;;;;19.19;35.01;98399.28;2062074;28;20046;-67
2022/01/05 00:54:37;;;;;;;3.15;1.70;;;;;;;19.21;35.32;98407.84;2061105;28;20054;-69
2022/01/05 00:55:41;;;;;;;4.10;1.73;;;;;;;19.23;35.24;98404.72;2061387;28;20057;-68
2022/01/05 00:56:44;;;;;;;7.60;3.88;;;;;;;19.23;35.15;98412.16;2062893;28;20134;-68
2022/01/05 00:57:52;;;;;;;2.83;1.83;;;;;;;19.23;35.25;98404.72;2062074;28;20042;-68
2022/01/05 00:58:56;;;;;;;4.35;2.17;;;;;;;19.26;34.98;98403.09;2061282;28;20046;-68
2022/01/05 01:00:02;;;;;;;4.65;2.20;;;;;;;19.22;35.34;98397.66;2061213;28;20057;-68
2022/01/05 01:01:09;;;;;;;4.75;1.98;;;;;;;19.15;34.96;98411.41;2063003;28;20061;-67
2022/01/05 01:02:16;;;;;;;2.88;1.63;;;;;;;19.17;35.21;98407.13;2063365;28;20054;-69
2022/01/05 01:03:20;;;;;;;5.32;2.42;;;;;;;19.15;35.04;98408.69;2063511;28;20682;-68
2022/01/05 01:04:27;;;;;;;4.25;2.80;;;;;;;19.18;35.28;98418.84;2064417;28;20050;-69
2022/01/05 01:05:35;;;;;;;3.03;1.80;;;;;;;19.20;35.35;98416.47;2064333;28;20390;-67
2022/01/05 01:06:45;;;;;;;4.43;2.38;;;;;;;19.20;35.28;98414.50;2064352;28;20057;-71
2022/01/05 01:07:49;;;;;;;4.35;2.10;;;;;;;19.20;35.23;98411.00;2064104;28;20046;-72
2022/01/05 01:08:56;;;;;;;5.45;2.30;;;;;;;19.16;35.05;98410.25;2064193;28;20038;-72
2022/01/05 01:10:00;;;;;;;6.63;2.50;;;;;;;19.17;35.17;98403.59;2063583;28;20129;-69
2022/01/05 01:11:04;;;;;;;4.35;2.35;;;;;;;19.16;35.21;98416.53;2063456;28;20051;-70
2022/01/05 01:12:11;;;;;;;3.72;2.40;;;;;;;19.21;35.33;98418.03;2063816;28;20046;-71
2022/01/05 01:13:17;;;;;;;3.72;1.90;;;;;;;19.24;35.41;98416.44;2064127;28;20396;-71
2022/01/05 01:14:21;;;;;;;3.45;2.10;;;;;;;19.27;35.22;98427.34;2079634;28;20485;-71
2022/01/05 01:15:25;;;;;;;7.20;1.90;;;;;;;19.28;35.49;98423.41;2070815;28;20422;-69
2022/01/05 01:16:29;;;;;;;4.72;1.60;;;;;;;19.28;34.99;98426.13;2063435;28;20070;-69
2022/01/05 01:17:37;;;;;;;2.53;1.50;;;;;;;19.28;35.30;98426.13;2063955;28;20706;-67
2022/01/05 01:18:40;;;;;;;2.58;1.70;;;;;;;19.27;35.50;98419.13;2064134;28;20604;-69
2022/01/05 01:19:44;;;;;;;4.28;1.45;;;;;;;19.26;35.57;98434.00;2064509;28;20053;-69
2022/01/05 01:20:47;;;;;;;7.43;1.80;;;;;;;19.27;35.54;98424.59;2079170;28;20057;-68
2022/01/05 01:21:52;;;;;;;3.53;1.80;;;;;;;19.29;35.39;98422.25;2078139;28;20080;-69
2022/01/05 01:22:56;;;;;;;3.20;1.60;;;;;;;19.24;35.17;98411.72;2063593;28;20058;-68
2022/01/05 01:24:01;;;;;;;4.88;2.20;;;;;;;19.24;35.28;98422.69;2064226;28;20054;-68
2022/01/05 01:25:06;;;;;;;4.85;1.98;;;;;;;19.20;35.49;98417.25;2064431;28;20462;-69
2022/01/05 01:26:15;;;;;;;2.92;1.98;;;;;;;19.17;35.16;98423.53;2064155;28;20066;-69
2022/01/05 01:27:21;;;;;;;2.17;1.70;;;;;;;19.19;35.63;98421.19;2064071;28;20054;-68
2022/01/05 01:28:27;;;;;;;5.25;1.92;;;;;;;19.18;35.51;98418.84;2063988;28;20147;-69
2022/01/05 01:29:36;;;;;;;3.80;1.98;;;;;;;19.11;35.55;98421.63;2063362;28;20051;-69
2022/01/05 01:30:40;;;;;;;3.42;1.50;;;;;;;19.10;35.54;98428.28;2062974;28;20135;-69
2022/01/05 01:31:45;;;;;;;3.80;1.60;;;;;;;19.05;35.56;98420.53;2062832;28;20056;-70
2022/01/05 01:32:50;;;;;;;4.03;1.80;;;;;;;19.05;35.52;98426.00;2063862;28;20047;-69
2022/01/05 01:33:56;;;;;;;4.22;1.80;;;;;;;19.04;35.28;98424.44;2064278;28;20054;-70
2022/01/05 01:35:01;;;;;;;2.60;1.48;;;;;;;19.01;35.21;98436.22;2064168;28;20600;-66
2022/01/05 01:36:05;;;;;;;2.40;1.52;;;;;;;18.99;35.53;98431.91;2062965;28;20058;-67
2022/01/05 01:37:11;;;;;;;3.13;1.30;;;;;;;18.99;35.55;98439.34;2063013;28;20079;-67
2022/01/05 01:38:15;;;;;;;5.00;1.75;;;;;;;18.94;35.51;98426.91;2063751;28;20066;-66
2022/01/05 01:39:30;;;;;;;7.32;4.15;;;;;;;18.90;35.63;98433.56;2063655;28;20398;-67
2022/01/05 01:40:32;;;;;;;2.95;1.58;;;;;;;18.87;35.60;98437.88;2062976;28;20125;-67
2022/01/05 01:41:40;;;;;;;2.90;1.70;;;;;;;18.89;35.81;98442.97;2062944;28;20061;-67
2022/01/05 01:42:43;;;;;;;4.28;2.05;;;;;;;18.91;35.60;98437.84;2064036;28;20043;-67
2022/01/05 01:43:48;;;;;;;5.50;2.17;;;;;;;18.90;35.63;98439.03;2064369;28;20051;-67
2022/01/05 01:44:53;;;;;;;2.20;1.60;;;;;;;18.90;36.05;98436.31;2063096;28;20727;-68
2022/01/05 01:45:57;;;;;;;3.45;1.50;;;;;;;18.91;35.54;98441.38;2055057;28;20055;-68
2022/01/05 01:47:01;;;;;;;4.63;1.83;;;;;;;18.92;35.65;98439.41;2063072;28;20438;-73
2022/01/05 01:48:08;;;;;;;6.47;1.80;;;;;;;18.94;35.33;98443.31;2064153;28;20058;-70
2022/01/05 01:49:12;;;;;;;4.30;2.42;;;;;;;18.93;35.34;98436.25;2064543;28;20070;-71
2022/01/05 01:50:17;;;;;;;3.47;1.60;;;;;;;18.96;35.78;98440.16;2063863;28;20360;-72
2022/01/05 01:51:20;;;;;;;2.10;1.30;;;;;;;18.99;35.89;98431.91;2063276;28;20065;-71
2022/01/05 01:52:28;;;;;;;3.70;1.63;;;;;;;19.03;35.74;98434.59;2063501;28;20047;-72
2022/01/05 01:53:32;;;;;;;3.78;1.80;;;;;;;19.06;35.51;98443.97;2063497;28;20053;-71
2022/01/05 01:54:38;;;;;;;5.45;1.58;;;;;;;19.06;35.46;98435.75;2063009;28;20442;-70
2022/01/05 01:55:41;;;;;;;5.10;1.70;;;;;;;19.07;35.24;98437.28;2063411;28;20054;-70
2022/01/05 01:56:48;;;;;;;3.88;1.52;;;;;;;19.10;35.13;98436.47;2063677;28;20062;-69
2022/01/05 01:57:52;;;;;;;3.58;2.38;;;;;;;19.07;35.15;98435.34;2063073;28;20054;-70
2022/01/05 01:58:57;;;;;;;6.50;1.88;;;;;;;19.06;35.43;98439.25;2063521;28;20050;-71
2022/01/05 02:00:00;;;;;;;4.72;1.70;;;;;;;19.06;35.07;98435.75;2055423;28;20050;-69
2022/01/05 02:01:06;;;;;;;5.93;3.08;;;;;;;18.98;35.24;98432.31;2055417;28;20557;-69
2022/01/05 02:02:11;;;;;;;3.75;2.40;;;;;;;18.97;35.29;98430.75;2070271;28;20057;-68
2022/01/05 02:03:21;;;;;;;4.70;2.17;;;;;;;18.95;35.33;98433.91;2069439;28;20071;-68
2022/01/05 02:04:26;;;;;;;5.38;2.50;;;;;;;18.93;35.19;98441.72;2063401;28;20058;-67
2022/01/05 02:05:29;;;;;;;7.75;2.13;;;;;;;18.95;35.21;98439.38;2063422;28;20067;-68
2022/01/05 02:06:34;;;;;;;3.60;2.17;;;;;;;18.96;35.24;98438.19;2063670;28;20069;-68
2022/01/05 02:07:37;;;;;;;3.35;1.95;;;;;;;18.99;35.26;98440.13;2063633;28;20579;-67
2022/01/05 02:08:45;;;;;;;3.85;1.67;;;;;;;19.02;34.92;98440.50;2064284;28;20050;-69
2022/01/05 02:09:51;;;;;;;3.92;1.63;;;;;;;19.04;35.08;98440.88;2063659;28;20741;-70
2022/01/05 02:10:59;;;;;;;3.40;1.80;;;;;;;19.04;35.22;98435.41;2063711;28;20081;-70
2022/01/05 02:12:05;;;;;;;3.38;1.80;;;;;;;19.06;35.16;98443.97;2063339;28;20046;-70
2022/01/05 02:13:10;;;;;;;4.60;1.90;;;;;;;19.06;35.16;98446.69;2062373;28;20047;-70
2022/01/05 02:14:17;;;;;;;3.47;1.70;;;;;;;19.07;34.99;98448.25;2063540;28;20054;-70
2022/01/05 02:15:22;;;;;;;4.43;2.40;;;;;;;19.07;34.98;98446.31;2063805;28;20061;-69
2022/01/05 02:16:29;;;;;;;4.28;1.80;;;;;;;19.03;34.81;98450.25;2060907;28;20401;-71
2022/01/05 02:17:44;;;;;;;3.90;1.70;;;;;;;19.03;34.97;98461.19;2063992;28;20054;-71
2022/01/05 02:18:59;;;;;;;4.90;1.83;;;;;;;19.05;35.22;98456.09;2063608;28;20054;-71
2022/01/05 02:20:14;;;;;;;2.85;1.50;;;;;;;19.07;35.08;98468.19;2064017;28;20050;-69
2022/01/05 02:21:20;;;;;;;3.92;1.52;;;;;;;19.07;34.76;98467.41;2064026;28;20109;-70
2022/01/05 02:22:25;;;;;;;5.50;1.80;;;;;;;19.09;34.54;98470.50;2064163;28;20058;-69
2022/01/05 02:23:30;;;;;;;3.80;2.10;;;;;;;19.09;34.75;98468.53;2063270;28;20058;-67
2022/01/05 02:24:37;;;;;;;4.70;1.50;;;;;;;19.10;34.74;98466.59;2071140;28;20054;-67
2022/01/05 02:25:41;;;;;;;4.70;1.80;;;;;;;19.13;34.96;98466.56;2077635;28;20045;-67
2022/01/05 02:26:46;;;;;;;6.45;1.90;;;;;;;19.13;34.91;98476.72;2063410;28;20066;-67
2022/01/05 02:27:52;;;;;;;4.95;1.75;;;;;;;19.09;34.77;98478.72;2063366;28;20057;-68
2022/01/05 02:28:57;;;;;;;5.10;2.05;;;;;;;19.10;34.99;98478.34;2063593;28;20054;-68
2022/01/05 02:30:02;;;;;;;4.63;1.92;;;;;;;19.13;34.90;98465.78;2064085;28;20058;-67
2022/01/05 02:31:07;;;;;;;2.97;1.67;;;;;;;19.14;34.89;98481.03;2063659;28;20055;-68
2022/01/05 02:32:12;;;;;;;3.13;1.60;;;;;;;19.14;34.86;98473.59;2063584;28;20149;-68
2022/01/05 02:33:16;;;;;;;3.33;1.60;;;;;;;19.17;34.89;98482.97;2063426;28;20057;-71
2022/01/05 02:34:24;;;;;;;3.90;1.45;;;;;;;19.21;34.80;98491.91;2063232;28;20062;-71
2022/01/05 02:35:27;;;;;;;6.20;2.40;;;;;;;19.18;34.48;98490.78;2063616;28;20521;-71
2022/01/05 02:36:36;;;;;;;3.17;1.40;;;;;;;19.20;34.89;98487.66;2063735;28;20054;-71
2022/01/05 02:37:43;;;;;;;3.08;1.83;;;;;;;19.20;34.48;98487.66;2063106;28;20058;-71
2022/01/05 02:38:49;;;;;;;3.55;2.40;;;;;;;19.21;34.75;98484.47;2062708;28;20057;-71
2022/01/05 02:39:53;;;;;;;5.05;1.92;;;;;;;19.23;34.61;98486.84;2063677;28;20038;-70
2022/01/05 02:40:58;;;;;;;4.10;2.15;;;;;;;19.24;34.62;98488.38;2063263;28;20506;-72
2022/01/05 02:42:03;;;;;;;4.10;1.95;;;;;;;19.27;34.69;98492.25;2062729;28;20184;-71
2022/01/05 02:43:08;;;;;;;4.50;1.83;;;;;;;19.29;34.56;98490.69;2054597;28;20066;-72
2022/01/05 02:44:14;;;;;;;4.57;1.58;;;;;;;19.27;34.19;98482.09;2062945;28;20061;-71
2022/01/05 02:45:17;;;;;;;3.40;1.70;;;;;;;19.28;34.36;98493.81;2062921;28;20065;-71
2022/01/05 02:46:26;;;;;;;3.90;1.45;;;;;;;19.30;34.34;98492.22;2062366;28;20062;-71
2022/01/05 02:47:31;;;;;;;4.00;2.00;;;;;;;19.31;34.41;98493.00;2063640;28;20054;-71
2022/01/05 02:48:36;;;;;;;4.72;2.65;;;;;;;19.26;34.07;98485.22;2063126;28;20054;-69
2022/01/05 02:49:40;;;;;;;4.95;1.50;;;;;;;19.28;34.40;98491.06;2063286;28;20053;-70
2022/01/05 02:50:47;;;;;;;5.88;2.65;;;;;;;19.25;34.24;98489.16;2063314;28;20410;-72
2022/01/05 02:51:52;;;;;;;3.50;2.17;;;;;;;19.26;34.52;98494.22;2063357;28;20054;-72
2022/01/05 02:53:00;;;;;;;4.55;1.70;;;;;;;19.29;34.41;98496.16;2063229;28;20050;-71
2022/01/05 02:54:05;;;;;;;4.15;1.80;;;;;;;19.33;34.23;98474.22;2063812;28;20065;-71
2022/01/05 02:55:12;;;;;;;6.50;3.10;;;;;;;19.32;34.25;98478.91;2063054;28;20777;-71
2022/01/05 02:56:18;;;;;;;5.43;1.75;;;;;;;19.34;34.56;98484.75;2055108;28;20119;-70
2022/01/05 02:57:21;;;;;;;5.10;2.00;;;;;;;19.37;34.59;98478.44;2055119;28;20061;-70
2022/01/05 02:58:26;;;;;;;3.70;1.80;;;;;;;19.39;34.34;98484.31;2054764;28;20055;-72
2022/01/05 02:59:30;;;;;;;4.65;1.48;;;;;;;19.40;34.20;98485.06;2055363;28;20050;-71
2022/01/05 03:00:35;;;;;;;2.92;1.52;;;;;;;19.41;34.40;98476.47;2055614;28;20063;-72
2022/01/05 03:01:41;;;;;;;2.78;1.40;;;;;;;19.41;34.29;98473.72;2055295;28;20054;-71
2022/01/05 03:02:44;;;;;;;4.70;1.98;;;;;;;19.41;33.86;98481.94;2054458;28;20050;-70
2022/01/05 03:03:53;;;;;;;2.85;1.33;;;;;;;19.39;34.13;98484.31;2054187;28;20062;-70
2022/01/05 03:04:58;;;;;;;7.90;1.70;;;;;;;19.40;34.19;98485.06;2054848;28;20055;-69
2022/01/05 03:06:03;;;;;;;4.90;1.63;;;;;;;19.36;34.09;98490.59;2055535;28;20055;-71
2022/01/05 03:07:10;;;;;;;6.85;1.85;;;;;;;19.32;34.38;98487.13;2054706;28;20519;-69
2022/01/05 03:08:15;;;;;;;3.10;1.50;;;;;;;19.36;34.25;98492.56;2054241;28;20071;-71
2022/01/05 03:09:19;;;;;;;1.80;1.13;;;;;;;19.36;34.24;98489.81;2054841;28;20062;-71
2022/01/05 03:10:26;;;;;;;3.47;1.48;;;;;;;19.37;34.40;98497.63;2054771;28;20067;-71
2022/01/05 03:11:30;;;;;;;3.20;1.45;;;;;;;19.34;34.51;98494.91;2062025;28;20081;-68
2022/01/05 03:12:35;;;;;;;4.40;1.48;;;;;;;19.33;34.26;98496.88;2062887;28;20058;-68
2022/01/05 03:13:39;;;;;;;3.63;1.30;;;;;;;19.34;34.24;98498.44;2063422;28;20058;-67
2022/01/05 03:14:44;;;;;;;2.83;1.40;;;;;;;19.34;34.32;98503.91;2063168;28;20383;-68
2022/01/05 03:15:46;;;;;;;2.85;1.52;;;;;;;19.25;34.11;98484.44;2063089;28;20042;-69
2022/01/05 03:16:51;;;;;;;5.05;1.58;;;;;;;19.31;34.40;98498.47;2062790;28;20450;-69
2022/01/05 03:17:54;;;;;;;2.97;1.25;;;;;;;19.28;34.17;98491.06;2062929;28;20053;-67
2022/01/05 03:19:01;;;;;;;4.60;1.17;;;;;;;19.28;34.29;98494.59;2062660;28;20054;-69
2022/01/05 03:20:06;;;;;;;6.95;1.25;;;;;;;19.32;34.20;98500.00;2054879;28;20079;-68
2022/01/05 03:21:13;;;;;;;2.28;1.20;;;;;;;19.22;34.26;98490.72;2061983;28;20069;-68
2022/01/05 03:22:22;;;;;;;2.85;1.23;;;;;;;19.33;34.13;98509.81;2062388;28;20062;-70
2022/01/05 03:23:26;;;;;;;4.82;1.20;;;;;;;19.32;34.30;98506.28;2054497;28;20055;-70
2022/01/05 03:24:32;;;;;;;4.10;1.40;;;;;;;19.30;34.10;98497.69;2055107;28;20620;-70
2022/01/05 03:25:39;;;;;;;5.30;1.27;;;;;;;19.28;34.21;98505.53;2062209;28;20129;-70
2022/01/05 03:26:42;;;;;;;2.85;1.33;;;;;;;19.29;34.43;98501.63;2063282;28;20374;-70
2022/01/05 03:27:51;;;;;;;3.58;1.10;;;;;;;19.27;33.98;98503.97;2062850;28;20054;-70
2022/01/05 03:28:55;;;;;;;3.53;1.08;;;;;;;19.30;34.21;98508.66;2063490;28;20482;-69
2022/01/05 03:30:02;;;;;;;5.40;1.40;;;;;;;19.30;34.07;98503.16;2063196;28;20042;-70
2022/01/05 03:31:05;;;;;;;2.53;1.20;;;;;;;19.30;34.21;98507.88;2062645;28;20046;-67
2022/01/05 03:32:10;;;;;;;3.83;1.10;;;;;;;19.29;34.29;98504.38;2062440;28;20094;-68
2022/01/05 03:33:20;;;;;;;4.30;1.30;;;;;;;19.30;33.80;98508.66;2062621;28;20062;-68
2022/01/05 03:34:27;;;;;;;6.90;1.30;;;;;;;19.31;34.23;98504.72;2062107;28;20046;-70
2022/01/05 03:35:32;;;;;;;2.67;1.20;;;;;;;19.30;33.97;98513.34;2054769;28;20235;-69
2022/01/05 03:36:37;;;;;;;2.72;1.00;;;;;;;19.28;34.41;98516.47;2054828;28;20360;-70
2022/01/05 03:37:44;;;;;;;4.40;2.10;;;;;;;19.25;33.97;98511.81;2062036;28;20042;-70
2022/01/05 03:38:50;;;;;;;6.03;2.15;;;;;;;19.20;34.00;98509.53;2062946;28;20495;-74
2022/01/05 03:39:56;;;;;;;3.60;1.92;;;;;;;19.18;34.02;98503.69;2062211;28;20051;-73
2022/01/05 03:41:02;;;;;;;2.75;1.65;;;;;;;19.18;34.21;98506.41;2061795;28;20059;-73
2022/01/05 03:42:07;;;;;;;3.30;1.50;;;;;;;19.19;34.21;98510.69;2062371;28;20729;-74
2022/01/05 03:43:12;;;;;;;2.58;1.20;;;;;;;19.24;34.24;98507.53;2062604;28;20054;-73
2022/01/05 03:44:16;;;;;;;3.65;1.33;;;;;;;19.14;34.19;98494.72;2063004;28;20058;-73
2022/01/05 03:45:24;;;;;;;6.60;2.10;;;;;;;19.20;34.06;98506.81;2062768;28;20070;-73
2022/01/05 03:46:30;;;;;;;5.25;1.60;;;;;;;19.20;34.15;98509.53;2062926;28;20054;-73
2022/01/05 03:47:38;;;;;;;3.78;2.13;;;;;;;19.14;34.17;98508.41;2063160;28;20059;-72
2022/01/05 03:48:43;;;;;;;4.25;2.50;;;;;;;19.11;33.95;98501.00;2062294;28;20042;-68
2022/01/05 03:49:47;;;;;;;8.55;2.00;;;;;;;19.08;34.35;98507.28;2061532;28;20125;-69
2022/01/05 03:50:53;;;;;;;2.42;1.35;;;;;;;19.11;34.34;98501.00;2053693;28;20051;-69
2022/01/05 03:51:57;;;;;;;4.65;1.70;;;;;;;19.12;34.13;98503.31;2059828;28;20418;-69
2022/01/05 03:53:04;;;;;;;4.78;2.10;;;;;;;19.12;34.18;98497.06;2061565;28;20576;-70
2022/01/05 03:54:07;;;;;;;4.53;1.70;;;;;;;19.06;33.97;98493.22;2050138;28;20062;-70
2022/01/05 03:55:16;;;;;;;4.68;1.40;;;;;;;19.04;33.95;98495.59;2056379;28;20521;-69
2022/01/05 03:56:23;;;;;;;3.38;1.30;;;;;;;19.01;33.96;98490.94;2062673;28;20493;-69
2022/01/05 03:57:27;;;;;;;2.88;1.30;;;;;;;19.01;34.17;98488.97;2057123;28;20038;-69
2022/01/05 03:58:32;;;;;;;4.28;1.40;;;;;;;19.02;34.04;98487.00;2058397;28;20053;-68
2022/01/05 03:59:35;;;;;;;2.75;1.30;;;;;;;18.98;34.14;98485.09;2059297;28;20803;-70
2022/01/05 04:00:42;;;;;;;4.20;1.20;;;;;;;18.99;33.98;98483.91;2061813;28;20062;-70
2022/01/05 04:01:46;;;;;;;5.40;1.38;;;;;;;18.98;34.05;98481.56;2061695;28;20051;-71
2022/01/05 04:02:52;;;;;;;3.38;1.40;;;;;;;18.96;34.13;98479.22;2061647;28;20050;-69
2022/01/05 04:03:57;;;;;;;3.42;1.23;;;;;;;19.01;34.03;98491.72;2062250;28;20046;-68
2022/01/05 04:05:00;;;;;;;3.03;1.20;;;;;;;19.03;33.86;98485.81;2062105;28;20061;-69
2022/01/05 04:06:06;;;;;;;3.42;1.30;;;;;;;19.03;33.60;98485.81;2061904;28;20059;-69
2022/01/05 04:07:14;;;;;;;2.08;1.05;;;;;;;19.02;33.76;98484.28;2063148;28;20049;-69
2022/01/05 04:08:22;;;;;;;4.18;1.40;;;;;;;19.02;33.80;98481.53;2062997;28;20046;-69
2022/01/05 04:09:25;;;;;;;3.65;1.23;;;;;;;19.01;33.79;98482.72;2063156;28;20062;-69
2022/01/05 04:10:31;;;;;;;5.32;1.08;;;;;;;18.99;33.84;98486.63;2061926;28;20054;-68
2022/01/05 04:11:36;;;;;;;4.18;1.50;;;;;;;19.01;33.95;98488.19;2061468;28;20074;-70
2022/01/05 04:12:41;;;;;;;3.50;1.33;;;;;;;19.01;33.99;98488.97;2062336;28;20388;-70
2022/01/05 04:13:45;;;;;;;4.20;2.10;;;;;;;19.02;34.35;98489.75;2062964;28;20057;-71
2022/01/05 04:14:50;;;;;;;3.78;1.35;;;;;;;18.99;33.94;98489.38;2062798;28;20046;-71
2022/01/05 04:15:56;;;;;;;3.13;1.48;;;;;;;19.02;34.18;98484.28;2062690;28;20042;-71
2022/01/05 04:16:59;;;;;;;3.03;1.05;;;;;;;19.07;33.92;98486.56;2062620;28;20042;-71
2022/01/05 04:18:04;;;;;;;2.72;1.05;;;;;;;19.07;34.38;98484.63;2063067;28;20065;-70
2022/01/05 04:19:08;;;;;;;2.80;1.20;;;;;;;19.07;34.27;98490.09;2062794;28;20057;-71
2022/01/05 04:20:16;;;;;;;2.47;1.50;;;;;;;19.04;34.03;98490.91;2062339;28;20058;-71
2022/01/05 04:21:19;;;;;;;4.75;2.30;;;;;;;18.98;34.09;98490.56;2063066;28;20054;-70
2022/01/05 04:22:24;;;;;;;3.03;1.35;;;;;;;19.01;34.28;98496.41;2062640;28;20058;-71
2022/01/05 04:23:30;;;;;;;3.78;1.58;;;;;;;18.99;34.21;98486.63;2062504;28;20046;-71
2022/01/05 04:24:35;;;;;;;4.43;2.20;;;;;;;19.00;34.12;98492.88;2062568;28;20055;-68
2022/01/05 04:25:39;;;;;;;3.08;1.85;;;;;;;18.97;34.04;98485.47;2063108;28;20054;-71
2022/01/05 04:26:48;;;;;;;3.10;1.60;;;;;;;18.97;33.97;98486.28;2063291;28;20050;-73
2022/01/05 04:27:52;;;;;;;5.13;2.15;;;;;;;18.95;34.00;98487.84;2063298;28;20050;-72
2022/01/05 04:28:58;;;;;;;2.92;1.88;;;;;;;18.95;34.06;98483.16;2062157;28;20042;-73
2022/01/05 04:30:02;;;;;;;3.28;1.55;;;;;;;18.91;33.96;98479.69;2062608;28;20081;-68
2022/01/05 04:31:07;;;;;;;3.40;1.50;;;;;;;18.89;34.08;98479.31;2062851;28;20495;-72
2022/01/05 04:32:12;;;;;;;4.68;1.60;;;;;;;18.94;34.22;98478.06;2062567;28;20677;-71
2022/01/05 04:33:17;;;;;;;2.55;1.45;;;;;;;18.96;34.10;98478.47;2078136;28;20046;-71
2022/01/05 04:34:21;;;;;;;2.10;1.30;;;;;;;18.95;34.23;98474.94;2076549;28;20057;-70
2022/01/05 04:35:29;;;;;;;5.35;1.40;;;;;;;18.98;34.18;98481.56;2062298;28;20055;-71
2022/01/05 04:36:36;;;;;;;4.95;1.60;;;;;;;19.02;34.06;98482.31;2061703;28;20061;-71
2022/01/05 04:37:45;;;;;;;3.75;1.77;;;;;;;19.02;33.85;98473.31;2061270;28;20399;-70
2022/01/05 04:38:52;;;;;;;3.70;2.00;;;;;;;19.02;34.17;98476.84;2062252;28;20379;-70
2022/01/05 04:39:58;;;;;;;5.25;1.90;;;;;;;19.02;34.25;98478.81;2062468;28;20282;-70
2022/01/05 04:41:02;;;;;;;5.55;1.50;;;;;;;19.01;33.94;98475.28;2062429;28;20050;-68
2022/01/05 04:42:07;;;;;;;3.63;1.45;;;;;;;18.96;34.42;98471.03;2063021;28;20054;-70
2022/01/05 04:43:16;;;;;;;3.13;1.50;;;;;;;19.02;34.40;98468.63;2062096;28;20050;-70
2022/01/05 04:44:20;;;;;;;2.47;1.50;;;;;;;19.00;33.86;98473.72;2061889;28;20057;-71
2022/01/05 04:45:25;;;;;;;3.17;1.42;;;;;;;18.96;34.21;98462.81;2077821;28;20056;-69
2022/01/05 04:46:28;;;;;;;8.27;2.03;;;;;;;18.95;34.03;98472.22;2076623;28;20134;-68
2022/01/05 04:47:34;;;;;;;4.75;1.90;;;;;;;18.92;33.79;98466.78;2062197;28;20415;-68
2022/01/05 04:48:42;;;;;;;3.95;2.20;;;;;;;18.93;33.91;98469.09;2062229;28;20375;-68
2022/01/05 04:49:44;;;;;;;4.72;1.80;;;;;;;18.88;33.92;98466.81;2061922;28;20050;-68
2022/01/05 04:50:49;;;;;;;7.07;4.65;;;;;;;18.89;33.77;98465.63;2062121;28;20419;-70
2022/01/05 04:51:52;;;;;;;4.50;2.67;;;;;;;18.86;33.79;98457.47;2062180;28;20617;-67
2022/01/05 04:52:58;;;;;;;5.25;1.88;;;;;;;18.82;33.86;98462.97;2062314;28;20761;-67
2022/01/05 04:54:05;;;;;;;2.80;1.80;;;;;;;18.77;34.00;98471.59;2062470;28;20062;-67
2022/01/05 04:55:12;;;;;;;3.15;1.65;;;;;;;18.72;33.93;98458.34;2062715;28;20054;-68
2022/01/05 04:56:18;;;;;;;5.43;2.30;;;;;;;18.71;34.35;98470.47;2062822;28;20057;-67
2022/01/05 04:57:21;;;;;;;4.63;2.25;;;;;;;18.64;33.99;98456.88;2062847;28;20529;-67
2022/01/05 04:58:31;;;;;;;4.72;1.80;;;;;;;18.60;34.60;98461.59;2062569;28;20046;-66
2022/01/05 04:59:34;;;;;;;5.00;1.80;;;;;;;18.61;34.50;98463.91;2062451;28;20517;-66
2022/01/05 05:00:42;;;;;;;3.78;1.90;;;;;;;18.61;34.33;98463.91;2061926;28;20055;-66
2022/01/05 05:01:46;;;;;;;6.10;1.80;;;;;;;18.57;34.10;98462.41;2062491;28;20054;-66
2022/01/05 05:02:51;;;;;;;3.55;2.10;;;;;;;18.56;34.70;98452.63;2062672;28;20050;-66
2022/01/05 05:03:54;;;;;;;6.30;1.70;;;;;;;18.57;34.65;98452.25;2063022;28;20521;-66
2022/01/05 05:05:03;;;;;;;4.03;1.60;;;;;;;18.60;34.53;98453.41;2063029;28;20537;-67
2022/01/05 05:06:07;;;;;;;3.33;1.92;;;;;;;18.58;34.58;98456.53;2062881;28;20100;-68
2022/01/05 05:07:13;;;;;;;3.17;1.67;;;;;;;18.62;34.44;98454.53;2062666;28;20046;-68
2022/01/05 05:08:17;;;;;;;3.78;1.60;;;;;;;18.66;34.22;98452.56;2062042;28;20505;-66
2022/01/05 05:09:24;;;;;;;6.95;1.70;;;;;;;18.73;35.20;98448.97;2062315;28;20047;-67